sensor_id;sensor_type;location;lat;lon;timestamp;temperature;humidity
15857;DHT22;8028;53.612;10.038;2022-07-29T00:02:03;13.70;99.90
15857;DHT22;8028;53.612;10.038;2022-07-29T00:04:29;13.70;99.90
15857;DHT22;8028;53.612;10.038;2022-07-29T00:06:55;13.70;99.90
15857;DHT22;8028;53.612;10.038;2022-07-29T00:09:21;13.70;99.90
15857;DHT22;8028;53.612;10.038;2022-07-29T00:11:47;13.70;18.70
15857;DHT22;8028;53.612;10.038;2022-07-29T00:14:13;13.70;1.00
15857;DHT22;8028;53.612;10.038;2022-07-29T00:16:39;13.70;79.20
15857;DHT22;8028;53.612;10.038;2022-07-29T00:19:05;13.60;99.90
15857;DHT22;8028;53.612;10.038;2022-07-29T00:21:31;13.60;99.90
15857;DHT22;8028;53.612;10.038;2022-07-29T00:23:57;13.60;99.90
15857;DHT22;8028;53.612;10.038;2022-07-29T00:26:23;13.60;99.90
15857;DHT22;8028;53.612;10.038;2022-07-29T00:28:51;13.50;99.90
15857;DHT22;8028;53.612;10.038;2022-07-29T00:31:17;13.50;99.90
15857;DHT22;8028;53.612;10.038;2022-07-29T00:33:46;13.40;99.90
15857;DHT22;8028;53.612;10.038;2022-07-29T00:36:12;13.40;99.90
15857;DHT22;8028;53.612;10.038;2022-07-29T00:38:37;13.40;99.90
15857;DHT22;8028;53.612;10.038;2022-07-29T00:41:03;13.30;1.00
15857;DHT22;8028;53.612;10.038;2022-07-29T00:43:29;13.30;1.00
15857;DHT22;8028;53.612;10.038;2022-07-29T00:45:55;13.20;1.00
15857;DHT22;8028;53.612;10.038;2022-07-29T00:48:21;13.10;1.00
15857;DHT22;8028;53.612;10.038;2022-07-29T00:50:46;13.00;1.00
15857;DHT22;8028;53.612;10.038;2022-07-29T00:53:14;13.10;1.00
15857;DHT22;8028;53.612;10.038;2022-07-29T00:55:40;13.10;1.00
15857;DHT22;8028;53.612;10.038;2022-07-29T00:58:06;13.00;1.00
15857;DHT22;8028;53.612;10.038;2022-07-29T01:00:32;13.00;1.00
15857;DHT22;8028;53.612;10.038;2022-07-29T01:02:58;12.90;1.00
15857;DHT22;8028;53.612;10.038;2022-07-29T01:05:26;12.80;1.00
15857;DHT22;8028;53.612;10.038;2022-07-29T01:07:54;12.80;1.00
15857;DHT22;8028;53.612;10.038;2022-07-29T01:10:21;12.80;1.00
15857;DHT22;8028;53.612;10.038;2022-07-29T01:12:50;12.80;1.00
15857;DHT22;8028;53.612;10.038;2022-07-29T01:15:16;12.90;1.00
15857;DHT22;8028;53.612;10.038;2022-07-29T01:18:07;12.90;1.00
15857;DHT22;8028;53.612;10.038;2022-07-29T01:26:11;12.90;99.90
15857;DHT22;8028;53.612;10.038;2022-07-29T01:31:34;12.80;1.00
15857;DHT22;8028;53.612;10.038;2022-07-29T01:34:09;12.80;1.00
15857;DHT22;8028;53.612;10.038;2022-07-29T01:36:47;12.90;99.90
15857;DHT22;8028;53.612;10.038;2022-07-29T01:39:23;12.80;1.00
15857;DHT22;8028;53.612;10.038;2022-07-29T01:45:18;12.70;1.00
15857;DHT22;8028;53.612;10.038;2022-07-29T01:48:05;12.80;99.90
15857;DHT22;8028;53.612;10.038;2022-07-29T01:50:40;12.90;99.90
15857;DHT22;8028;53.612;10.038;2022-07-29T01:53:10;12.90;99.90
15857;DHT22;8028;53.612;10.038;2022-07-29T01:55:44;13.00;75.00
15857;DHT22;8028;53.612;10.038;2022-07-29T01:58:11;13.10;1.00
15857;DHT22;8028;53.612;10.038;2022-07-29T02:00:38;13.10;1.00
15857;DHT22;8028;53.612;10.038;2022-07-29T02:03:10;13.10;1.00
15857;DHT22;8028;53.612;10.038;2022-07-29T02:05:39;13.00;23.60
15857;DHT22;8028;53.612;10.038;2022-07-29T02:08:07;13.10;69.80
15857;DHT22;8028;53.612;10.038;2022-07-29T02:10:34;13.00;65.30
15857;DHT22;8028;53.612;10.038;2022-07-29T02:13:02;13.00;46.90
15857;DHT22;8028;53.612;10.038;2022-07-29T02:15:32;13.00;99.90
15857;DHT22;8028;53.612;10.038;2022-07-29T02:18:07;13.10;1.00
15857;DHT22;8028;53.612;10.038;2022-07-29T02:20:34;13.10;1.00
15857;DHT22;8028;53.612;10.038;2022-07-29T02:23:01;13.20;1.00
15857;DHT22;8028;53.612;10.038;2022-07-29T02:25:28;13.10;1.00
15857;DHT22;8028;53.612;10.038;2022-07-29T02:27:55;13.20;1.00
15857;DHT22;8028;53.612;10.038;2022-07-29T02:30:22;13.20;1.00
15857;DHT22;8028;53.612;10.038;2022-07-29T02:32:49;13.10;1.00
15857;DHT22;8028;53.612;10.038;2022-07-29T02:35:16;13.30;97.90
15857;DHT22;8028;53.612;10.038;2022-07-29T02:37:44;13.40;1.00
15857;DHT22;8028;53.612;10.038;2022-07-29T02:40:32;13.40;1.00
15857;DHT22;8028;53.612;10.038;2022-07-29T02:42:58;13.40;1.00
15857;DHT22;8028;53.612;10.038;2022-07-29T02:45:25;13.30;1.00
15857;DHT22;8028;53.612;10.038;2022-07-29T02:47:51;13.30;1.00
15857;DHT22;8028;53.612;10.038;2022-07-29T02:50:23;13.30;52.90
15857;DHT22;8028;53.612;10.038;2022-07-29T02:52:59;13.30;1.00
15857;DHT22;8028;53.612;10.038;2022-07-29T02:58:24;13.30;99.90
15857;DHT22;8028;53.612;10.038;2022-07-29T03:00:49;13.30;99.90
15857;DHT22;8028;53.612;10.038;2022-07-29T03:03:18;13.40;73.60
15857;DHT22;8028;53.612;10.038;2022-07-29T03:05:44;13.40;1.00
15857;DHT22;8028;53.612;10.038;2022-07-29T03:08:11;13.40;10.30
15857;DHT22;8028;53.612;10.038;2022-07-29T03:10:43;13.30;99.90
15857;DHT22;8028;53.612;10.038;2022-07-29T03:13:10;13.30;99.90
15857;DHT22;8028;53.612;10.038;2022-07-29T03:15:38;13.20;99.90
15857;DHT22;8028;53.612;10.038;2022-07-29T03:18:03;13.30;99.90
15857;DHT22;8028;53.612;10.038;2022-07-29T03:20:30;13.30;99.90
15857;DHT22;8028;53.612;10.038;2022-07-29T03:22:56;13.40;99.90
15857;DHT22;8028;53.612;10.038;2022-07-29T03:25:22;13.30;99.90
15857;DHT22;8028;53.612;10.038;2022-07-29T03:27:49;13.30;99.90
15857;DHT22;8028;53.612;10.038;2022-07-29T03:30:15;13.40;99.90
15857;DHT22;8028;53.612;10.038;2022-07-29T03:32:41;13.40;99.90
15857;DHT22;8028;53.612;10.038;2022-07-29T03:35:07;13.40;99.90
15857;DHT22;8028;53.612;10.038;2022-07-29T03:37:34;13.40;99.90
15857;DHT22;8028;53.612;10.038;2022-07-29T03:40:04;13.50;1.60
15857;DHT22;8028;53.612;10.038;2022-07-29T03:42:32;13.60;1.00
15857;DHT22;8028;53.612;10.038;2022-07-29T03:45:03;13.60;1.00
15857;DHT22;8028;53.612;10.038;2022-07-29T03:47:31;13.60;1.00
15857;DHT22;8028;53.612;10.038;2022-07-29T03:50:06;13.60;1.00
15857;DHT22;8028;53.612;10.038;2022-07-29T03:52:32;13.60;1.00
15857;DHT22;8028;53.612;10.038;2022-07-29T03:54:58;13.70;1.00
15857;DHT22;8028;53.612;10.038;2022-07-29T03:57:27;13.70;1.00
15857;DHT22;8028;53.612;10.038;2022-07-29T03:59:53;13.70;1.00
15857;DHT22;8028;53.612;10.038;2022-07-29T04:02:20;13.70;1.00
15857;DHT22;8028;53.612;10.038;2022-07-29T04:04:46;13.60;1.00
15857;DHT22;8028;53.612;10.038;2022-07-29T04:07:15;13.60;1.00
15857;DHT22;8028;53.612;10.038;2022-07-29T04:09:44;13.70;1.00
15857;DHT22;8028;53.612;10.038;2022-07-29T04:12:10;13.70;1.00
15857;DHT22;8028;53.612;10.038;2022-07-29T04:14:38;13.90;1.00
15857;DHT22;8028;53.612;10.038;2022-07-29T04:17:04;13.90;1.00
15857;DHT22;8028;53.612;10.038;2022-07-29T04:19:31;13.90;1.00
15857;DHT22;8028;53.612;10.038;2022-07-29T04:21:58;13.80;1.00
15857;DHT22;8028;53.612;10.038;2022-07-29T04:24:24;13.90;1.00
15857;DHT22;8028;53.612;10.038;2022-07-29T04:26:50;13.90;1.00
15857;DHT22;8028;53.612;10.038;2022-07-29T04:29:16;13.90;1.00
15857;DHT22;8028;53.612;10.038;2022-07-29T04:31:42;14.00;1.00
15857;DHT22;8028;53.612;10.038;2022-07-29T04:34:09;14.00;1.00
15857;DHT22;8028;53.612;10.038;2022-07-29T04:36:35;14.00;1.00
15857;DHT22;8028;53.612;10.038;2022-07-29T04:39:01;14.00;1.00
15857;DHT22;8028;53.612;10.038;2022-07-29T04:41:30;14.00;1.00
15857;DHT22;8028;53.612;10.038;2022-07-29T04:43:56;14.00;1.00
15857;DHT22;8028;53.612;10.038;2022-07-29T04:46:22;14.00;1.00
15857;DHT22;8028;53.612;10.038;2022-07-29T04:48:48;14.00;1.00
15857;DHT22;8028;53.612;10.038;2022-07-29T04:51:15;14.00;1.00
15857;DHT22;8028;53.612;10.038;2022-07-29T04:53:41;14.10;1.00
15857;DHT22;8028;53.612;10.038;2022-07-29T04:56:06;14.20;1.00
15857;DHT22;8028;53.612;10.038;2022-07-29T04:58:34;14.30;1.00
15857;DHT22;8028;53.612;10.038;2022-07-29T05:01:00;14.30;1.00
15857;DHT22;8028;53.612;10.038;2022-07-29T05:03:29;14.30;1.00
15857;DHT22;8028;53.612;10.038;2022-07-29T05:05:55;14.40;1.00
15857;DHT22;8028;53.612;10.038;2022-07-29T05:08:21;14.50;99.90
15857;DHT22;8028;53.612;10.038;2022-07-29T05:10:47;14.70;99.90
15857;DHT22;8028;53.612;10.038;2022-07-29T05:13:12;14.70;15.20
15857;DHT22;8028;53.612;10.038;2022-07-29T05:15:38;14.60;1.00
15857;DHT22;8028;53.612;10.038;2022-07-29T05:18:05;14.50;29.20
15857;DHT22;8028;53.612;10.038;2022-07-29T05:20:31;14.60;30.60
15857;DHT22;8028;53.612;10.038;2022-07-29T05:23:00;14.60;1.00
15857;DHT22;8028;53.612;10.038;2022-07-29T05:25:27;14.60;99.90
15857;DHT22;8028;53.612;10.038;2022-07-29T05:27:53;14.70;1.00
15857;DHT22;8028;53.612;10.038;2022-07-29T05:30:19;14.80;1.00
15857;DHT22;8028;53.612;10.038;2022-07-29T05:32:45;15.00;1.00
15857;DHT22;8028;53.612;10.038;2022-07-29T05:35:12;15.10;1.00
15857;DHT22;8028;53.612;10.038;2022-07-29T05:37:38;15.20;1.00
15857;DHT22;8028;53.612;10.038;2022-07-29T05:40:05;15.30;99.90
15857;DHT22;8028;53.612;10.038;2022-07-29T05:42:31;15.50;99.90
15857;DHT22;8028;53.612;10.038;2022-07-29T05:44:56;15.70;46.40
15857;DHT22;8028;53.612;10.038;2022-07-29T05:47:23;15.90;1.00
15857;DHT22;8028;53.612;10.038;2022-07-29T05:49:49;16.00;1.00
15857;DHT22;8028;53.612;10.038;2022-07-29T05:52:14;16.10;1.00
15857;DHT22;8028;53.612;10.038;2022-07-29T05:54:40;16.20;1.00
15857;DHT22;8028;53.612;10.038;2022-07-29T05:57:06;16.30;1.00
15857;DHT22;8028;53.612;10.038;2022-07-29T05:59:38;16.40;1.00
15857;DHT22;8028;53.612;10.038;2022-07-29T06:02:04;16.50;99.90
15857;DHT22;8028;53.612;10.038;2022-07-29T06:04:33;16.40;1.00
15857;DHT22;8028;53.612;10.038;2022-07-29T06:06:58;16.60;1.00
15857;DHT22;8028;53.612;10.038;2022-07-29T06:09:24;16.70;1.00
15857;DHT22;8028;53.612;10.038;2022-07-29T06:11:51;17.10;99.90
15857;DHT22;8028;53.612;10.038;2022-07-29T06:14:18;17.30;1.00
15857;DHT22;8028;53.612;10.038;2022-07-29T06:16:43;17.50;1.00
15857;DHT22;8028;53.612;10.038;2022-07-29T06:19:09;17.50;99.90
15857;DHT22;8028;53.612;10.038;2022-07-29T06:21:35;17.70;1.00
15857;DHT22;8028;53.612;10.038;2022-07-29T06:24:01;17.70;1.00
15857;DHT22;8028;53.612;10.038;2022-07-29T06:26:27;17.70;99.90
15857;DHT22;8028;53.612;10.038;2022-07-29T06:28:53;17.70;99.90
15857;DHT22;8028;53.612;10.038;2022-07-29T06:31:19;17.80;1.00
15857;DHT22;8028;53.612;10.038;2022-07-29T06:33:44;18.10;42.10
15857;DHT22;8028;53.612;10.038;2022-07-29T06:36:10;18.20;71.10
15857;DHT22;8028;53.612;10.038;2022-07-29T06:38:35;18.30;39.10
15857;DHT22;8028;53.612;10.038;2022-07-29T06:41:03;18.30;1.00
15857;DHT22;8028;53.612;10.038;2022-07-29T06:43:36;18.40;1.00
15857;DHT22;8028;53.612;10.038;2022-07-29T06:46:15;18.40;1.00
15857;DHT22;8028;53.612;10.038;2022-07-29T06:48:49;18.30;1.00
15857;DHT22;8028;53.612;10.038;2022-07-29T06:51:57;18.40;1.00
15857;DHT22;8028;53.612;10.038;2022-07-29T06:54:26;18.70;1.00
15857;DHT22;8028;53.612;10.038;2022-07-29T06:57:12;18.90;1.00
15857;DHT22;8028;53.612;10.038;2022-07-29T06:59:42;19.20;1.00
15857;DHT22;8028;53.612;10.038;2022-07-29T07:02:08;19.20;1.00
15857;DHT22;8028;53.612;10.038;2022-07-29T07:04:34;19.30;99.90
15857;DHT22;8028;53.612;10.038;2022-07-29T07:06:59;19.30;99.90
15857;DHT22;8028;53.612;10.038;2022-07-29T07:09:25;19.20;99.90
15857;DHT22;8028;53.612;10.038;2022-07-29T07:11:51;19.20;99.90
15857;DHT22;8028;53.612;10.038;2022-07-29T07:14:16;19.30;99.90
15857;DHT22;8028;53.612;10.038;2022-07-29T07:16:42;19.50;99.90
15857;DHT22;8028;53.612;10.038;2022-07-29T07:19:07;19.50;99.90
15857;DHT22;8028;53.612;10.038;2022-07-29T07:21:33;19.70;1.00
15857;DHT22;8028;53.612;10.038;2022-07-29T07:23:59;19.80;1.00
15857;DHT22;8028;53.612;10.038;2022-07-29T07:26:26;19.70;1.00
15857;DHT22;8028;53.612;10.038;2022-07-29T07:28:52;19.70;1.00
15857;DHT22;8028;53.612;10.038;2022-07-29T07:31:18;19.80;1.00
15857;DHT22;8028;53.612;10.038;2022-07-29T07:33:43;19.90;1.00
15857;DHT22;8028;53.612;10.038;2022-07-29T07:36:09;20.00;1.00
15857;DHT22;8028;53.612;10.038;2022-07-29T07:38:35;19.90;1.00
15857;DHT22;8028;53.612;10.038;2022-07-29T07:41:00;20.00;1.00
15857;DHT22;8028;53.612;10.038;2022-07-29T07:43:26;20.00;1.00
15857;DHT22;8028;53.612;10.038;2022-07-29T07:45:52;20.00;1.00
15857;DHT22;8028;53.612;10.038;2022-07-29T07:48:18;20.00;1.00
15857;DHT22;8028;53.612;10.038;2022-07-29T07:50:44;19.90;1.00
15857;DHT22;8028;53.612;10.038;2022-07-29T07:53:10;19.80;1.00
15857;DHT22;8028;53.612;10.038;2022-07-29T07:55:43;19.90;1.00
15857;DHT22;8028;53.612;10.038;2022-07-29T07:58:09;19.80;1.00
15857;DHT22;8028;53.612;10.038;2022-07-29T08:00:35;19.90;1.00
15857;DHT22;8028;53.612;10.038;2022-07-29T08:03:01;20.10;1.00
15857;DHT22;8028;53.612;10.038;2022-07-29T08:05:27;20.30;1.00
15857;DHT22;8028;53.612;10.038;2022-07-29T08:07:53;20.50;1.00
15857;DHT22;8028;53.612;10.038;2022-07-29T08:10:19;20.50;1.00
15857;DHT22;8028;53.612;10.038;2022-07-29T08:13:05;20.70;1.00
15857;DHT22;8028;53.612;10.038;2022-07-29T08:15:31;20.90;99.90
15857;DHT22;8028;53.612;10.038;2022-07-29T08:17:59;21.00;1.00
15857;DHT22;8028;53.612;10.038;2022-07-29T08:20:25;21.20;99.90
15857;DHT22;8028;53.612;10.038;2022-07-29T08:22:51;21.30;1.00
15857;DHT22;8028;53.612;10.038;2022-07-29T08:25:18;21.40;1.00
15857;DHT22;8028;53.612;10.038;2022-07-29T08:27:46;21.50;1.00
15857;DHT22;8028;53.612;10.038;2022-07-29T08:30:12;21.70;1.00
15857;DHT22;8028;53.612;10.038;2022-07-29T08:32:38;21.60;1.00
15857;DHT22;8028;53.612;10.038;2022-07-29T08:35:04;21.60;1.00
15857;DHT22;8028;53.612;10.038;2022-07-29T08:37:29;21.80;1.00
15857;DHT22;8028;53.612;10.038;2022-07-29T08:39:55;22.10;1.00
15857;DHT22;8028;53.612;10.038;2022-07-29T08:42:21;22.20;1.00
15857;DHT22;8028;53.612;10.038;2022-07-29T08:44:47;22.10;1.00
15857;DHT22;8028;53.612;10.038;2022-07-29T08:47:16;22.20;1.00
15857;DHT22;8028;53.612;10.038;2022-07-29T08:49:42;22.40;1.00
15857;DHT22;8028;53.612;10.038;2022-07-29T08:52:13;22.40;1.00
15857;DHT22;8028;53.612;10.038;2022-07-29T08:54:43;22.40;1.00
15857;DHT22;8028;53.612;10.038;2022-07-29T08:57:12;22.40;1.00
15857;DHT22;8028;53.612;10.038;2022-07-29T08:59:40;22.20;1.00
15857;DHT22;8028;53.612;10.038;2022-07-29T09:02:21;22.20;1.00
15857;DHT22;8028;53.612;10.038;2022-07-29T09:04:47;22.20;1.00
15857;DHT22;8028;53.612;10.038;2022-07-29T09:07:15;22.30;1.00
15857;DHT22;8028;53.612;10.038;2022-07-29T09:09:42;22.30;1.00
15857;DHT22;8028;53.612;10.038;2022-07-29T09:12:09;22.50;99.90
15857;DHT22;8028;53.612;10.038;2022-07-29T09:14:37;22.60;99.90
15857;DHT22;8028;53.612;10.038;2022-07-29T09:17:04;22.70;99.90
15857;DHT22;8028;53.612;10.038;2022-07-29T09:19:34;22.70;99.90
15857;DHT22;8028;53.612;10.038;2022-07-29T09:22:03;22.80;99.90
15857;DHT22;8028;53.612;10.038;2022-07-29T09:24:42;22.90;99.90
15857;DHT22;8028;53.612;10.038;2022-07-29T09:27:22;23.00;99.90
15857;DHT22;8028;53.612;10.038;2022-07-29T09:29:58;23.20;99.90
15857;DHT22;8028;53.612;10.038;2022-07-29T09:32:24;23.50;99.90
15857;DHT22;8028;53.612;10.038;2022-07-29T09:37:36;23.50;99.90
15857;DHT22;8028;53.612;10.038;2022-07-29T09:40:11;23.40;99.90
15857;DHT22;8028;53.612;10.038;2022-07-29T09:42:37;23.30;99.90
15857;DHT22;8028;53.612;10.038;2022-07-29T09:45:03;23.50;99.90
15857;DHT22;8028;53.612;10.038;2022-07-29T09:47:51;23.50;99.90
15857;DHT22;8028;53.612;10.038;2022-07-29T09:50:17;23.50;99.90
15857;DHT22;8028;53.612;10.038;2022-07-29T09:56:41;23.60;99.90
15857;DHT22;8028;53.612;10.038;2022-07-29T09:59:08;23.50;99.90
15857;DHT22;8028;53.612;10.038;2022-07-29T10:01:34;23.80;99.90
15857;DHT22;8028;53.612;10.038;2022-07-29T10:04:01;23.80;92.10
15857;DHT22;8028;53.612;10.038;2022-07-29T10:06:27;23.80;99.90
15857;DHT22;8028;53.612;10.038;2022-07-29T10:08:54;24.00;98.10
15857;DHT22;8028;53.612;10.038;2022-07-29T10:11:21;24.30;99.90
15857;DHT22;8028;53.612;10.038;2022-07-29T10:13:48;24.40;96.50
15857;DHT22;8028;53.612;10.038;2022-07-29T10:16:15;24.70;41.00
15857;DHT22;8028;53.612;10.038;2022-07-29T10:18:42;25.00;1.00
15857;DHT22;8028;53.612;10.038;2022-07-29T10:21:09;25.40;1.00
15857;DHT22;8028;53.612;10.038;2022-07-29T10:23:36;25.70;1.00
15857;DHT22;8028;53.612;10.038;2022-07-29T10:26:03;25.80;1.00
15857;DHT22;8028;53.612;10.038;2022-07-29T10:31:01;26.00;1.00
15857;DHT22;8028;53.612;10.038;2022-07-29T10:33:40;26.20;1.00
15857;DHT22;8028;53.612;10.038;2022-07-29T10:42:18;26.10;1.00
15857;DHT22;8028;53.612;10.038;2022-07-29T10:44:46;26.00;1.00
15857;DHT22;8028;53.612;10.038;2022-07-29T10:49:59;26.20;1.00
15857;DHT22;8028;53.612;10.038;2022-07-29T10:52:51;26.10;1.00
15857;DHT22;8028;53.612;10.038;2022-07-29T10:55:37;25.70;1.00
15857;DHT22;8028;53.612;10.038;2022-07-29T10:58:15;25.70;1.00
15857;DHT22;8028;53.612;10.038;2022-07-29T11:00:41;25.70;1.00
15857;DHT22;8028;53.612;10.038;2022-07-29T11:03:07;25.70;1.00
15857;DHT22;8028;53.612;10.038;2022-07-29T11:05:55;25.80;1.00
15857;DHT22;8028;53.612;10.038;2022-07-29T11:08:22;25.80;1.00
15857;DHT22;8028;53.612;10.038;2022-07-29T11:10:50;25.90;1.00
15857;DHT22;8028;53.612;10.038;2022-07-29T11:13:45;26.20;1.00
15857;DHT22;8028;53.612;10.038;2022-07-29T11:16:16;26.20;1.00
15857;DHT22;8028;53.612;10.038;2022-07-29T11:21:37;26.10;1.00
15857;DHT22;8028;53.612;10.038;2022-07-29T11:24:14;26.10;1.00
15857;DHT22;8028;53.612;10.038;2022-07-29T11:26:41;26.20;1.00
15857;DHT22;8028;53.612;10.038;2022-07-29T11:31:43;27.10;1.00
15857;DHT22;8028;53.612;10.038;2022-07-29T11:34:30;27.70;1.00
15857;DHT22;8028;53.612;10.038;2022-07-29T11:39:36;28.10;1.00
15857;DHT22;8028;53.612;10.038;2022-07-29T11:45:03;28.60;1.00
15857;DHT22;8028;53.612;10.038;2022-07-29T11:47:38;28.50;1.00
15857;DHT22;8028;53.612;10.038;2022-07-29T11:50:09;28.50;1.00
15857;DHT22;8028;53.612;10.038;2022-07-29T11:52:44;28.40;1.00
15857;DHT22;8028;53.612;10.038;2022-07-29T11:55:17;27.90;1.00
15857;DHT22;8028;53.612;10.038;2022-07-29T11:57:58;27.80;1.00
15857;DHT22;8028;53.612;10.038;2022-07-29T12:02:59;28.00;1.00
15857;DHT22;8028;53.612;10.038;2022-07-29T12:05:33;28.10;1.00
15857;DHT22;8028;53.612;10.038;2022-07-29T12:08:18;27.90;1.00
15857;DHT22;8028;53.612;10.038;2022-07-29T12:10:46;27.50;1.00
15857;DHT22;8028;53.612;10.038;2022-07-29T12:13:14;27.20;1.00
15857;DHT22;8028;53.612;10.038;2022-07-29T12:15:40;27.20;1.00
15857;DHT22;8028;53.612;10.038;2022-07-29T12:18:17;27.50;1.00
15857;DHT22;8028;53.612;10.038;2022-07-29T12:20:44;28.10;1.00
15857;DHT22;8028;53.612;10.038;2022-07-29T12:23:10;28.40;1.00
15857;DHT22;8028;53.612;10.038;2022-07-29T12:25:43;28.50;1.00
15857;DHT22;8028;53.612;10.038;2022-07-29T12:28:11;28.80;1.00
15857;DHT22;8028;53.612;10.038;2022-07-29T12:30:48;28.50;1.00
15857;DHT22;8028;53.612;10.038;2022-07-29T12:33:22;28.40;1.00
15857;DHT22;8028;53.612;10.038;2022-07-29T12:35:56;28.70;1.00
15857;DHT22;8028;53.612;10.038;2022-07-29T12:38:22;29.30;1.00
15857;DHT22;8028;53.612;10.038;2022-07-29T12:40:48;29.60;1.00
15857;DHT22;8028;53.612;10.038;2022-07-29T12:43:17;29.70;1.00
15857;DHT22;8028;53.612;10.038;2022-07-29T12:45:46;29.90;1.00
15857;DHT22;8028;53.612;10.038;2022-07-29T12:48:13;29.90;1.00
15857;DHT22;8028;53.612;10.038;2022-07-29T12:53:18;29.20;1.00
15857;DHT22;8028;53.612;10.038;2022-07-29T12:55:47;29.50;1.00
15857;DHT22;8028;53.612;10.038;2022-07-29T12:58:28;29.80;1.00
15857;DHT22;8028;53.612;10.038;2022-07-29T13:01:03;29.80;1.00
15857;DHT22;8028;53.612;10.038;2022-07-29T13:03:29;29.40;1.00
15857;DHT22;8028;53.612;10.038;2022-07-29T13:06:06;29.20;1.00
15857;DHT22;8028;53.612;10.038;2022-07-29T13:08:32;28.90;1.00
15857;DHT22;8028;53.612;10.038;2022-07-29T13:10:57;28.60;1.00
15857;DHT22;8028;53.612;10.038;2022-07-29T13:13:23;28.40;1.00
15857;DHT22;8028;53.612;10.038;2022-07-29T13:16:06;28.30;1.00
15857;DHT22;8028;53.612;10.038;2022-07-29T13:18:34;28.70;1.00
15857;DHT22;8028;53.612;10.038;2022-07-29T13:21:14;29.00;1.00
15857;DHT22;8028;53.612;10.038;2022-07-29T13:23:40;29.10;1.00
15857;DHT22;8028;53.612;10.038;2022-07-29T13:26:07;28.90;1.00
15857;DHT22;8028;53.612;10.038;2022-07-29T13:28:33;28.70;1.00
15857;DHT22;8028;53.612;10.038;2022-07-29T13:31:00;28.50;1.00
15857;DHT22;8028;53.612;10.038;2022-07-29T13:33:25;28.80;1.00
15857;DHT22;8028;53.612;10.038;2022-07-29T13:35:51;29.00;1.00
15857;DHT22;8028;53.612;10.038;2022-07-29T13:38:17;29.00;1.00
15857;DHT22;8028;53.612;10.038;2022-07-29T13:40:42;29.00;1.00
15857;DHT22;8028;53.612;10.038;2022-07-29T13:43:11;28.50;1.00
15857;DHT22;8028;53.612;10.038;2022-07-29T13:45:37;27.90;1.00
15857;DHT22;8028;53.612;10.038;2022-07-29T13:48:03;27.50;1.00
15857;DHT22;8028;53.612;10.038;2022-07-29T13:50:29;27.50;1.00
15857;DHT22;8028;53.612;10.038;2022-07-29T13:52:55;27.60;1.00
15857;DHT22;8028;53.612;10.038;2022-07-29T13:55:20;27.40;1.00
15857;DHT22;8028;53.612;10.038;2022-07-29T14:00:16;27.00;1.00
15857;DHT22;8028;53.612;10.038;2022-07-29T14:02:42;27.30;1.00
15857;DHT22;8028;53.612;10.038;2022-07-29T14:05:08;27.80;1.00
15857;DHT22;8028;53.612;10.038;2022-07-29T14:07:36;27.90;1.00
15857;DHT22;8028;53.612;10.038;2022-07-29T14:10:03;27.90;1.00
15857;DHT22;8028;53.612;10.038;2022-07-29T14:12:32;27.90;1.00
15857;DHT22;8028;53.612;10.038;2022-07-29T14:14:58;27.80;1.00
15857;DHT22;8028;53.612;10.038;2022-07-29T14:17:23;28.20;1.00
15857;DHT22;8028;53.612;10.038;2022-07-29T14:19:49;28.40;1.00
15857;DHT22;8028;53.612;10.038;2022-07-29T14:22:14;28.60;1.00
15857;DHT22;8028;53.612;10.038;2022-07-29T14:24:40;29.00;1.00
15857;DHT22;8028;53.612;10.038;2022-07-29T14:27:07;29.40;1.00
15857;DHT22;8028;53.612;10.038;2022-07-29T14:29:33;29.50;1.00
15857;DHT22;8028;53.612;10.038;2022-07-29T14:31:59;29.60;1.00
15857;DHT22;8028;53.612;10.038;2022-07-29T14:34:25;29.40;1.00
15857;DHT22;8028;53.612;10.038;2022-07-29T14:36:51;29.10;1.00
15857;DHT22;8028;53.612;10.038;2022-07-29T14:39:16;28.90;1.00
15857;DHT22;8028;53.612;10.038;2022-07-29T14:41:43;28.80;1.00
15857;DHT22;8028;53.612;10.038;2022-07-29T14:44:08;28.80;1.00
15857;DHT22;8028;53.612;10.038;2022-07-29T14:46:34;28.50;1.00
15857;DHT22;8028;53.612;10.038;2022-07-29T14:49:00;28.30;1.00
15857;DHT22;8028;53.612;10.038;2022-07-29T14:51:26;28.20;1.00
15857;DHT22;8028;53.612;10.038;2022-07-29T14:53:51;28.50;1.00
15857;DHT22;8028;53.612;10.038;2022-07-29T14:56:17;28.60;1.00
15857;DHT22;8028;53.612;10.038;2022-07-29T14:58:43;28.80;1.00
15857;DHT22;8028;53.612;10.038;2022-07-29T15:01:08;29.10;1.00
15857;DHT22;8028;53.612;10.038;2022-07-29T15:03:34;29.80;1.00
15857;DHT22;8028;53.612;10.038;2022-07-29T15:06:00;31.00;1.00
15857;DHT22;8028;53.612;10.038;2022-07-29T15:08:27;31.80;1.00
15857;DHT22;8028;53.612;10.038;2022-07-29T15:10:55;32.60;1.00
15857;DHT22;8028;53.612;10.038;2022-07-29T15:13:23;33.70;1.00
15857;DHT22;8028;53.612;10.038;2022-07-29T15:15:48;35.20;1.00
15857;DHT22;8028;53.612;10.038;2022-07-29T15:20:40;36.60;92.80
15857;DHT22;8028;53.612;10.038;2022-07-29T15:23:06;36.80;1.00
15857;DHT22;8028;53.612;10.038;2022-07-29T15:25:35;37.30;1.00
15857;DHT22;8028;53.612;10.038;2022-07-29T15:30:32;37.80;1.00
15857;DHT22;8028;53.612;10.038;2022-07-29T15:32:59;38.10;1.00
15857;DHT22;8028;53.612;10.038;2022-07-29T15:35:25;38.10;1.00
15857;DHT22;8028;53.612;10.038;2022-07-29T15:37:51;36.90;1.00
15857;DHT22;8028;53.612;10.038;2022-07-29T15:40:17;35.00;1.00
15857;DHT22;8028;53.612;10.038;2022-07-29T15:42:42;32.80;1.00
15857;DHT22;8028;53.612;10.038;2022-07-29T15:45:08;31.60;1.00
15857;DHT22;8028;53.612;10.038;2022-07-29T15:47:37;31.60;1.00
15857;DHT22;8028;53.612;10.038;2022-07-29T15:50:03;32.50;1.00
15857;DHT22;8028;53.612;10.038;2022-07-29T15:52:29;34.40;1.00
15857;DHT22;8028;53.612;10.038;2022-07-29T15:54:55;36.10;1.00
15857;DHT22;8028;53.612;10.038;2022-07-29T15:57:21;37.20;1.00
15857;DHT22;8028;53.612;10.038;2022-07-29T15:59:47;36.40;1.00
15857;DHT22;8028;53.612;10.038;2022-07-29T16:02:15;36.20;1.00
15857;DHT22;8028;53.612;10.038;2022-07-29T16:04:42;36.40;1.00
15857;DHT22;8028;53.612;10.038;2022-07-29T16:07:07;37.40;1.00
15857;DHT22;8028;53.612;10.038;2022-07-29T16:09:33;38.20;1.00
15857;DHT22;8028;53.612;10.038;2022-07-29T16:11:59;38.80;1.00
15857;DHT22;8028;53.612;10.038;2022-07-29T16:14:25;39.20;1.00
15857;DHT22;8028;53.612;10.038;2022-07-29T16:16:51;37.90;1.00
15857;DHT22;8028;53.612;10.038;2022-07-29T16:19:16;36.00;1.00
15857;DHT22;8028;53.612;10.038;2022-07-29T16:21:42;35.00;1.00
15857;DHT22;8028;53.612;10.038;2022-07-29T16:24:08;34.40;1.00
15857;DHT22;8028;53.612;10.038;2022-07-29T16:26:34;33.20;1.00
15857;DHT22;8028;53.612;10.038;2022-07-29T16:29:01;32.00;1.00
15857;DHT22;8028;53.612;10.038;2022-07-29T16:31:27;31.10;1.00
15857;DHT22;8028;53.612;10.038;2022-07-29T16:33:53;30.20;1.00
15857;DHT22;8028;53.612;10.038;2022-07-29T16:36:19;29.70;1.00
15857;DHT22;8028;53.612;10.038;2022-07-29T16:38:45;29.40;1.00
15857;DHT22;8028;53.612;10.038;2022-07-29T16:41:12;29.50;1.00
15857;DHT22;8028;53.612;10.038;2022-07-29T16:43:38;30.20;1.00
15857;DHT22;8028;53.612;10.038;2022-07-29T16:46:06;32.30;1.00